NCAR-RAP Real-Time Weather Data

Output produced by METARs form (17 December 2018  14:48 UTC)
found at http://weather.rap.ucar.edu/surface/
 
RJTT 171430Z 29003KT 9999 FEW020 09/05 Q1005 NOSIG RMK 1CU020 A2969
 
RJAA 171430Z 29004KT 9999 MIFG FEW020 06/06 Q1005 NOSIG RMK 1CU020 A2968
 
 
RJAH 171434Z VRB02KT 9999 FEW015 04/04 Q1004 RMK 1CU015 A2966
 
RJGG 171430Z 27017KT 9999 -SHRA FEW020 BKN050 10/04 Q1011 NOSIG
 
RJNK 171400Z 24004KT 210V290 8000 -SHRA FEW008 SCT020 BKN030 08/03 Q1012
 
RJNT 171226Z 20009KT 7000 -SHRA FEW010 FEW015TCU BKN025 06/01 Q1010 RMK 1CU010 1TCU015 6CU025 A2985 TCU 10KM E MOV E
 
RJNW 171000Z 30004KT 250V360 8000 -SHRA FEW000 SCT010 BKN020 06/04 Q1008
 
 
 
 
RJTE 171045Z 36007KT 5000 BR FEW035 12/10 Q1004 RMK 1CU035 A2965
 
 
 
RJTK 171113Z 17002KT 9999 FEW030 BKN080 08/07 Q1004 RMK 1CU030 6AC080 A2966
 
 
 
 
RJTT 171430Z 29003KT 9999 FEW020 09/05 Q1005 NOSIG RMK 1CU020 A2969
 
 
RJTY 171356Z AUTO 00000KT 10SM CLR 06/03 A2973 RMK AO2 SLP075 T00610029 FZRANO $